Terminal Aerodrome Forecast
Issued by NWS

Home | Current Version | Previous Version | Text Only | Print | Product List | Glossary On
Versions: 1 2 3 4 5 6 7 8 9 10 11 12 13 14 15 16 17 18 19 20
000
FTUS45 KRIW 252329
TAFCPR
TAF
KCPR 252329Z 2600/2624 09014G20KT P6SM VCTS SCT025CB BKN040
     FM260100 06015KT P6SM VCSH SCT030 BKN040
     FM260400 03012KT 4SM -SHRA OVC012
     FM261000 02015KT 2SM -SN OVC008
     FM262100 36010KT 4SM -SNRA SCT010 BKN015=

USA.gov is the U.S. government's official web portal to all federal, state and local government web resources and services.